Terminal Aerodrome Forecast
Issued by NWS Melbourne, FL

Home | Current Version | Previous Version | Text Only | Print | Product List | Glossary On
Versions: 1 2 3 4 5 6 7 8 9 10 11 12 13 14 15
745
FTUS42 KMLB 180703 AAA
TAFDAB
TAF AMD
KDAB 180703Z 1807/1906 VRB03KT 5SM BR FEW200
      TEMPO 1809/1812 3SM BR SCT002
     FM181500 23006KT P6SM SCT035 BKN250
     FM181800 26007KT P6SM SCT035 BKN250
     FM182300 VRB03KT P6SM FEW045 BKN250=

USA.gov is the U.S. government's official web portal to all federal, state and local government web resources and services.